Hubbard, Nebraska
Current Conditions -  °F | °C
As of 10:52 PM on Wednesday 22 Oct 2014 (Local Time) from KSUX Reporting Station
Overcast Overcast  
Wind Chill: 60°   Ceiling: 2200
Heat Index: 60°   Visibility: 10mi
Dew Point: 59°   Wind: 3mph
Humidity: 96%   Direction: 110°ESE
Pressure: 30.03"   Gusts: NA
Location:  42.39°N, 96.59°W
Report Text: KSUX 230352Z AUTO 11003KT 10SM SCT015 OVC022 16/15 A3003 RMK AO2 SLP168 T01560150
Loading
Personal Weather Stations






























Interactive Weather Map
Tropical Storm Tracking
New forecast layout! Learn more

10-Day Weather Forecast

Advertisements
Track Severe Weather on mobile